createdAt,value
2023-04-22T00:00:18.298Z,477.00
2023-04-22T00:01:18.284Z,471.00
2023-04-22T00:02:18.175Z,484.00
2023-04-22T00:03:18.297Z,463.00
2023-04-22T00:04:19.153Z,454.00
2023-04-22T00:05:20.719Z,470.00
2023-04-22T00:06:18.202Z,479.00
2023-04-22T00:07:18.044Z,464.00
2023-04-22T00:08:18.848Z,480.00
2023-04-22T00:09:18.213Z,466.00
2023-04-22T00:10:18.174Z,471.00
2023-04-22T00:11:18.039Z,474.00
2023-04-22T00:12:18.009Z,470.00
2023-04-22T00:13:18.207Z,470.00
2023-04-22T00:14:18.172Z,479.00
2023-04-22T00:15:18.078Z,474.00
2023-04-22T00:16:18.042Z,473.00
2023-04-22T00:17:18.093Z,477.00
2023-04-22T00:18:18.242Z,453.00
2023-04-22T00:19:18.042Z,471.00
2023-04-22T00:20:18.059Z,453.00
2023-04-22T00:21:18.146Z,476.00
2023-04-22T00:22:17.960Z,473.00
2023-04-22T00:23:18.076Z,460.00
2023-04-22T00:24:18.023Z,458.00
2023-04-22T00:25:17.955Z,461.00
2023-04-22T00:26:17.958Z,464.00
2023-04-22T00:27:18.052Z,469.00
2023-04-22T00:28:17.971Z,471.00
2023-04-22T00:29:17.921Z,465.00
2023-04-22T00:30:17.991Z,467.00
2023-04-22T00:31:18.062Z,478.00
2023-04-22T00:32:17.909Z,478.00
2023-04-22T00:33:18.090Z,479.00
2023-04-22T00:34:18.161Z,482.00
2023-04-22T00:35:18.326Z,471.00
2023-04-22T00:36:17.864Z,475.00
2023-04-22T00:37:18.045Z,480.00
2023-04-22T00:38:18.074Z,479.00
2023-04-22T00:39:18.179Z,476.00
2023-04-22T00:40:18.166Z,472.00
2023-04-22T00:41:18.116Z,454.00
2023-04-22T00:42:18.015Z,468.00
2023-04-22T00:43:18.052Z,458.00
2023-04-22T00:44:18.192Z,463.00
2023-04-22T00:45:18.278Z,459.00
2023-04-22T00:46:18.249Z,471.00
2023-04-22T00:47:18.154Z,469.00
2023-04-22T00:48:18.171Z,465.00
2023-04-22T00:49:18.274Z,474.00
2023-04-22T00:50:18.232Z,475.00
2023-04-22T00:51:18.292Z,480.00
2023-04-22T00:52:18.237Z,486.00
2023-04-22T00:53:18.258Z,449.00
2023-04-22T00:54:18.302Z,464.00
2023-04-22T00:55:18.292Z,472.00
2023-04-22T00:56:18.327Z,468.00
2023-04-22T00:57:18.420Z,470.00
2023-04-22T00:58:18.381Z,471.00
2023-04-22T00:59:18.670Z,469.00
2023-04-22T01:00:18.509Z,470.00
2023-04-22T01:01:19.234Z,469.00
2023-04-22T01:02:18.734Z,473.00
2023-04-22T01:03:18.736Z,474.00
2023-04-22T01:04:19.417Z,476.00
2023-04-22T01:05:18.651Z,483.00
2023-04-22T01:06:18.518Z,479.00
2023-04-22T01:07:18.564Z,479.00
2023-04-22T01:08:18.641Z,467.00
2023-04-22T01:09:18.667Z,468.00
2023-04-22T01:10:18.635Z,452.00
2023-04-22T01:11:18.700Z,472.00
2023-04-22T01:12:18.664Z,479.00
2023-04-22T01:13:18.787Z,485.00
2023-04-22T01:14:18.818Z,483.00
2023-04-22T01:15:18.767Z,493.00
2023-04-22T01:16:18.768Z,492.00
2023-04-22T01:17:18.880Z,478.00
2023-04-22T01:18:18.822Z,469.00
2023-04-22T01:19:18.717Z,462.00
2023-04-22T01:20:18.680Z,486.00
2023-04-22T01:21:18.786Z,475.00
2023-04-22T01:22:18.734Z,475.00
2023-04-22T01:23:18.634Z,473.00
2023-04-22T01:24:18.645Z,483.00
2023-04-22T01:25:18.653Z,444.00
2023-04-22T01:26:18.789Z,457.00
2023-04-22T01:27:18.734Z,478.00
2023-04-22T01:28:18.603Z,478.00
2023-04-22T01:29:18.603Z,479.00
2023-04-22T01:30:18.671Z,506.00
2023-04-22T01:31:18.592Z,468.00
2023-04-22T01:32:19.014Z,470.00
2023-04-22T01:33:18.721Z,482.00
2023-04-22T01:34:18.841Z,477.00
2023-04-22T01:35:18.939Z,476.00
2023-04-22T01:36:18.842Z,450.00
2023-04-22T01:37:18.877Z,498.00
2023-04-22T01:38:18.948Z,449.00
2023-04-22T01:39:19.079Z,489.00
2023-04-22T01:40:19.188Z,493.00
2023-04-22T01:41:19.288Z,490.00
2023-04-22T01:42:19.099Z,483.00
2023-04-22T01:43:19.187Z,457.00
2023-04-22T01:44:19.348Z,476.00
2023-04-22T01:45:19.325Z,480.00
2023-04-22T01:46:19.337Z,486.00
2023-04-22T01:47:19.302Z,491.00
2023-04-22T01:48:19.386Z,495.00
2023-04-22T01:49:19.212Z,491.00
2023-04-22T01:50:19.267Z,490.00
2023-04-22T01:51:19.338Z,492.00
2023-04-22T01:52:19.314Z,492.00
2023-04-22T01:53:19.151Z,487.00
2023-04-22T01:54:19.308Z,485.00
2023-04-22T01:55:19.125Z,472.00
2023-04-22T01:56:19.293Z,477.00
2023-04-22T01:57:19.190Z,484.00
2023-04-22T01:58:19.296Z,479.00
2023-04-22T01:59:19.310Z,473.00
2023-04-22T02:00:19.410Z,490.00
2023-04-22T02:01:19.546Z,489.00
2023-04-22T02:02:19.575Z,493.00
2023-04-22T02:03:19.520Z,509.00
2023-04-22T02:04:19.505Z,486.00
2023-04-22T02:05:19.448Z,517.00
2023-04-22T02:06:19.447Z,496.00
2023-04-22T02:07:19.506Z,486.00
2023-04-22T02:08:19.502Z,499.00
2023-04-22T02:09:19.565Z,458.00
2023-04-22T02:10:19.814Z,500.00
2023-04-22T02:11:19.609Z,475.00
2023-04-22T02:12:19.543Z,478.00
2023-04-22T02:13:19.763Z,506.00
2023-04-22T02:14:19.727Z,502.00
2023-04-22T02:15:19.901Z,499.00
2023-04-22T02:16:19.801Z,502.00
2023-04-22T02:17:19.599Z,498.00
2023-04-22T02:18:19.584Z,501.00
2023-04-22T02:19:19.666Z,497.00
2023-04-22T02:20:19.625Z,500.00
2023-04-22T02:21:19.573Z,487.00
2023-04-22T02:22:19.633Z,501.00
2023-04-22T02:23:19.534Z,487.00
2023-04-22T02:24:19.602Z,493.00
2023-04-22T02:25:19.698Z,491.00
2023-04-22T02:26:19.627Z,497.00
2023-04-22T02:27:19.509Z,497.00
2023-04-22T02:28:19.520Z,479.00
2023-04-22T02:29:19.500Z,496.00
2023-04-22T02:30:19.594Z,480.00
2023-04-22T02:31:19.562Z,481.00
2023-04-22T02:32:19.656Z,500.00
2023-04-22T02:33:19.448Z,486.00
2023-04-22T02:34:19.499Z,503.00
2023-04-22T02:35:19.523Z,500.00
2023-04-22T02:36:19.522Z,524.00
2023-04-22T02:37:19.558Z,482.00
2023-04-22T02:38:19.528Z,483.00
2023-04-22T02:39:19.497Z,497.00
2023-04-22T02:40:19.585Z,493.00
2023-04-22T02:41:19.567Z,506.00
2023-04-22T02:42:19.609Z,475.00
2023-04-22T02:43:19.529Z,493.00
2023-04-22T02:44:19.582Z,506.00
2023-04-22T02:45:19.618Z,504.00
2023-04-22T02:46:19.652Z,498.00
2023-04-22T02:47:19.668Z,503.00
2023-04-22T02:48:19.640Z,495.00
2023-04-22T02:49:19.686Z,505.00
2023-04-22T02:50:19.862Z,505.00
2023-04-22T02:51:19.781Z,499.00
2023-04-22T02:52:19.814Z,484.00
2023-04-22T02:53:19.815Z,497.00
2023-04-22T02:54:19.798Z,501.00
2023-04-22T02:55:19.906Z,508.00
2023-04-22T02:56:19.885Z,485.00
2023-04-22T02:57:19.930Z,498.00
2023-04-22T02:58:19.925Z,505.00
2023-04-22T02:59:19.981Z,507.00
2023-04-22T03:00:20.017Z,510.00
2023-04-22T03:01:20.147Z,514.00
2023-04-22T03:02:20.137Z,525.00
2023-04-22T03:03:20.199Z,508.00
2023-04-22T03:04:20.159Z,515.00
2023-04-22T03:05:20.216Z,502.00
2023-04-22T03:06:20.178Z,499.00
2023-04-22T03:07:20.219Z,480.00
2023-04-22T03:08:20.248Z,496.00
2023-04-22T03:09:20.283Z,510.00
2023-04-22T03:10:20.299Z,511.00
2023-04-22T03:11:20.371Z,505.00
2023-04-22T03:12:20.369Z,496.00
2023-04-22T03:13:20.361Z,514.00
2023-04-22T03:14:20.395Z,497.00
2023-04-22T03:15:21.704Z,497.00
2023-04-22T03:16:20.598Z,489.00
2023-04-22T03:17:20.486Z,494.00
2023-04-22T03:18:20.525Z,497.00
2023-04-22T03:19:20.605Z,508.00
2023-04-22T03:20:20.650Z,503.00
2023-04-22T03:21:20.579Z,502.00
2023-04-22T03:22:20.607Z,511.00
2023-04-22T03:23:20.652Z,489.00
2023-04-22T03:24:20.670Z,495.00
2023-04-22T03:25:20.697Z,491.00
2023-04-22T03:26:20.657Z,526.00
2023-04-22T03:27:20.692Z,477.00
2023-04-22T03:28:20.707Z,484.00
2023-04-22T03:29:20.817Z,499.00
2023-04-22T03:30:20.875Z,511.00
2023-04-22T03:31:21.322Z,511.00
2023-04-22T03:32:20.915Z,477.00
2023-04-22T03:33:20.875Z,490.00
2023-04-22T03:34:20.820Z,495.00
2023-04-22T03:35:20.829Z,498.00
2023-04-22T03:36:20.847Z,490.00
2023-04-22T03:37:20.896Z,497.00
2023-04-22T03:38:20.881Z,499.00
2023-04-22T03:39:20.898Z,502.00
2023-04-22T03:40:20.927Z,488.00
2023-04-22T03:41:20.895Z,479.00
2023-04-22T03:42:20.902Z,498.00
2023-04-22T03:43:20.927Z,465.00
2023-04-22T03:44:20.966Z,486.00
2023-04-22T03:45:21.325Z,485.00
2023-04-22T03:46:21.053Z,485.00
2023-04-22T03:47:21.101Z,485.00
2023-04-22T03:48:21.110Z,494.00
2023-04-22T03:49:21.215Z,500.00
2023-04-22T03:50:21.166Z,493.00
2023-04-22T03:51:21.292Z,505.00
2023-04-22T03:52:21.249Z,485.00
2023-04-22T03:53:21.338Z,498.00
2023-04-22T03:54:21.383Z,491.00
2023-04-22T03:55:21.480Z,496.00
2023-04-22T03:56:21.539Z,479.00
2023-04-22T03:57:21.538Z,487.00
2023-04-22T03:58:21.555Z,499.00
2023-04-22T03:59:21.604Z,481.00
2023-04-22T04:00:21.749Z,507.00
2023-04-22T04:01:21.740Z,483.00
2023-04-22T04:02:21.767Z,480.00
2023-04-22T04:03:21.870Z,501.00
2023-04-22T04:04:21.801Z,488.00
2023-04-22T04:05:21.873Z,500.00
2023-04-22T04:06:21.779Z,500.00
2023-04-22T04:07:22.752Z,497.00
2023-04-22T04:08:21.896Z,485.00
2023-04-22T04:09:21.875Z,501.00
2023-04-22T04:10:21.948Z,510.00
2023-04-22T04:11:21.959Z,504.00
2023-04-22T04:12:22.014Z,463.00
2023-04-22T04:13:21.987Z,502.00
2023-04-22T04:14:22.059Z,492.00
2023-04-22T04:15:22.077Z,467.00
2023-04-22T04:16:22.276Z,494.00
2023-04-22T04:17:22.214Z,505.00
2023-04-22T04:18:22.228Z,495.00
2023-04-22T04:19:22.197Z,509.00
2023-04-22T04:20:22.284Z,510.00
2023-04-22T04:21:22.318Z,510.00
2023-04-22T04:22:22.276Z,502.00
2023-04-22T04:23:22.309Z,544.00
2023-04-22T04:24:22.336Z,503.00
2023-04-22T04:25:22.502Z,518.00
2023-04-22T04:26:22.499Z,509.00
2023-04-22T04:27:22.459Z,465.00
2023-04-22T04:28:22.512Z,511.00
2023-04-22T04:29:22.596Z,499.00
2023-04-22T04:30:22.566Z,498.00
2023-04-22T04:31:22.603Z,505.00
2023-04-22T04:32:22.722Z,501.00
2023-04-22T04:33:22.563Z,501.00
2023-04-22T04:34:22.608Z,503.00
2023-04-22T04:35:22.606Z,517.00
2023-04-22T04:36:22.638Z,516.00
2023-04-22T04:37:22.712Z,495.00
2023-04-22T04:38:22.610Z,499.00
2023-04-22T04:39:22.641Z,501.00
2023-04-22T04:40:22.675Z,497.00
2023-04-22T04:41:22.799Z,498.00
2023-04-22T04:42:22.783Z,498.00
2023-04-22T04:43:22.715Z,498.00
2023-04-22T04:44:22.788Z,499.00
2023-04-22T04:45:22.794Z,503.00
2023-04-22T04:46:22.884Z,505.00
2023-04-22T04:47:22.867Z,507.00
2023-04-22T04:48:22.887Z,507.00
2023-04-22T04:49:22.864Z,506.00
2023-04-22T04:50:22.937Z,502.00
2023-04-22T04:51:23.038Z,502.00
2023-04-22T04:52:22.960Z,503.00
2023-04-22T04:53:23.005Z,502.00
2023-04-22T04:54:23.009Z,504.00
2023-04-22T04:55:22.971Z,502.00
2023-04-22T04:56:23.207Z,501.00
2023-04-22T04:57:23.056Z,499.00
2023-04-22T04:58:23.047Z,498.00
2023-04-22T04:59:23.148Z,497.00
2023-04-22T05:00:23.112Z,502.00
2023-04-22T05:01:23.254Z,491.00
2023-04-22T05:02:23.666Z,497.00
2023-04-22T05:03:23.339Z,498.00
2023-04-22T05:04:23.483Z,511.00
2023-04-22T05:05:23.272Z,500.00
2023-04-22T05:06:23.314Z,503.00
2023-04-22T05:07:23.242Z,504.00
2023-04-22T05:08:23.266Z,503.00
2023-04-22T05:09:23.340Z,503.00
2023-04-22T05:10:23.336Z,503.00
2023-04-22T05:11:23.452Z,503.00
2023-04-22T05:12:23.435Z,499.00
2023-04-22T05:13:23.478Z,500.00
2023-04-22T05:14:23.552Z,500.00
2023-04-22T05:15:23.588Z,503.00
2023-04-22T05:16:23.672Z,462.00
2023-04-22T05:17:23.698Z,449.00
2023-04-22T05:18:23.672Z,462.00
2023-04-22T05:19:23.696Z,478.00
2023-04-22T05:20:23.697Z,485.00
2023-04-22T05:21:23.776Z,530.00
2023-04-22T05:22:23.800Z,471.00
2023-04-22T05:23:23.874Z,497.00
2023-04-22T05:24:23.926Z,513.00
2023-04-22T05:25:23.941Z,476.00
2023-04-22T05:26:24.082Z,484.00
2023-04-22T05:27:24.041Z,475.00
2023-04-22T05:28:24.115Z,487.00
2023-04-22T05:29:24.153Z,484.00
2023-04-22T05:30:24.183Z,493.00
2023-04-22T05:31:24.215Z,494.00
2023-04-22T05:32:24.505Z,463.00
2023-04-22T05:33:24.266Z,506.00
2023-04-22T05:34:24.337Z,479.00
2023-04-22T05:35:24.388Z,498.00
2023-04-22T05:36:24.443Z,477.00
2023-04-22T05:37:24.473Z,481.00
2023-04-22T05:38:24.518Z,502.00
2023-04-22T05:39:24.514Z,497.00
2023-04-22T05:40:24.650Z,510.00
2023-04-22T05:41:24.587Z,470.00
2023-04-22T05:42:24.624Z,460.00
2023-04-22T05:43:24.589Z,456.00
2023-04-22T05:44:24.623Z,470.00
2023-04-22T05:45:24.627Z,461.00
2023-04-22T05:46:24.731Z,465.00
2023-04-22T05:47:24.715Z,460.00
2023-04-22T05:48:24.705Z,484.00
2023-04-22T05:49:24.759Z,514.00
2023-04-22T05:50:24.778Z,474.00
2023-04-22T05:51:24.799Z,478.00
2023-04-22T05:52:24.793Z,476.00
2023-04-22T05:53:24.804Z,487.00
2023-04-22T05:54:24.836Z,482.00
2023-04-22T05:55:24.950Z,483.00
2023-04-22T05:56:24.948Z,484.00
2023-04-22T05:57:24.956Z,459.00
2023-04-22T05:58:24.987Z,475.00
2023-04-22T05:59:24.988Z,482.00
2023-04-22T06:00:25.008Z,498.00
2023-04-22T06:01:25.096Z,472.00
2023-04-22T06:02:25.332Z,487.00
2023-04-22T06:03:25.360Z,464.00
2023-04-22T06:04:25.463Z,504.00
2023-04-22T06:05:25.286Z,485.00
2023-04-22T06:06:25.248Z,488.00
2023-04-22T06:07:25.243Z,500.00
2023-04-22T06:08:25.213Z,488.00
2023-04-22T06:09:25.237Z,482.00
2023-04-22T06:10:25.324Z,489.00
2023-04-22T06:11:25.295Z,461.00
2023-04-22T06:12:25.287Z,453.00
2023-04-22T06:13:25.321Z,467.00
2023-04-22T06:14:25.343Z,458.00
2023-04-22T06:15:25.379Z,466.00
2023-04-22T06:16:25.414Z,463.00
2023-04-22T06:17:25.436Z,472.00
2023-04-22T06:18:26.521Z,489.00
2023-04-22T06:19:25.661Z,489.00
2023-04-22T06:20:25.565Z,484.00
2023-04-22T06:21:25.605Z,466.00
2023-04-22T06:22:25.712Z,460.00
2023-04-22T06:23:25.720Z,469.00
2023-04-22T06:24:27.312Z,470.00
2023-04-22T06:25:25.760Z,475.00
2023-04-22T06:26:25.804Z,473.00
2023-04-22T06:27:25.879Z,474.00
2023-04-22T06:28:25.928Z,481.00
2023-04-22T06:29:25.946Z,458.00
2023-04-22T06:30:26.001Z,436.00
2023-04-22T06:31:26.009Z,483.00
2023-04-22T06:32:26.042Z,417.00
2023-04-22T06:33:26.090Z,456.00
2023-04-22T06:34:26.105Z,473.00
2023-04-22T06:35:26.158Z,482.00
2023-04-22T06:36:27.951Z,453.00
2023-04-22T06:37:26.110Z,481.00
2023-04-22T06:38:26.268Z,439.00
2023-04-22T06:39:26.139Z,451.00
2023-04-22T06:40:26.103Z,483.00
2023-04-22T06:41:26.135Z,469.00
2023-04-22T06:42:26.118Z,459.00
2023-04-22T06:43:26.080Z,473.00
2023-04-22T06:44:26.080Z,473.00
2023-04-22T06:45:26.106Z,451.00
2023-04-22T06:46:26.115Z,472.00
2023-04-22T06:47:26.106Z,476.00
2023-04-22T06:48:26.054Z,548.00
2023-04-22T06:49:26.097Z,462.00
2023-04-22T06:50:26.077Z,478.00
2023-04-22T06:51:26.113Z,478.00
2023-04-22T06:52:26.028Z,479.00
2023-04-22T06:53:26.046Z,476.00
2023-04-22T06:54:26.045Z,475.00
2023-04-22T06:55:26.021Z,465.00
2023-04-22T06:56:26.000Z,468.00
2023-04-22T06:57:26.029Z,459.00
2023-04-22T06:58:26.079Z,503.00
2023-04-22T06:59:26.007Z,468.00
2023-04-22T07:00:25.963Z,462.00
2023-04-22T07:01:26.026Z,500.00
2023-04-22T07:02:26.077Z,468.00
2023-04-22T07:03:26.192Z,473.00
2023-04-22T07:04:26.822Z,473.00
2023-04-22T07:05:26.087Z,485.00
2023-04-22T07:06:25.977Z,464.00
2023-04-22T07:07:26.048Z,484.00
2023-04-22T07:08:26.014Z,462.00
2023-04-22T07:09:25.964Z,501.00
2023-04-22T07:10:26.136Z,446.00
2023-04-22T07:11:26.023Z,462.00
2023-04-22T07:12:26.172Z,490.00
2023-04-22T07:13:25.878Z,471.00
2023-04-22T07:14:25.939Z,473.00
2023-04-22T07:15:25.922Z,494.00
2023-04-22T07:16:25.960Z,472.00
2023-04-22T07:17:25.969Z,476.00
2023-04-22T07:18:25.876Z,480.00
2023-04-22T07:19:25.930Z,474.00
2023-04-22T07:20:25.976Z,443.00
2023-04-22T07:21:25.948Z,462.00
2023-04-22T07:22:25.953Z,463.00
2023-04-22T07:23:25.956Z,466.00
2023-04-22T07:24:25.996Z,513.00
2023-04-22T07:25:26.048Z,457.00
2023-04-22T07:26:26.089Z,478.00
2023-04-22T07:27:26.104Z,456.00
2023-04-22T07:28:26.224Z,429.00
2023-04-22T07:29:26.148Z,459.00
2023-04-22T07:30:26.134Z,459.00
2023-04-22T07:31:26.272Z,472.00
2023-04-22T07:32:26.305Z,475.00
2023-04-22T07:33:26.292Z,480.00
2023-04-22T07:34:26.349Z,470.00
2023-04-22T07:35:26.517Z,469.00
2023-04-22T07:36:26.599Z,467.00
2023-04-22T07:37:26.565Z,473.00
2023-04-22T07:38:26.744Z,460.00
2023-04-22T07:39:26.688Z,477.00
2023-04-22T07:40:26.663Z,470.00
2023-04-22T07:41:26.613Z,467.00
2023-04-22T07:42:26.610Z,462.00
2023-04-22T07:43:26.708Z,457.00
2023-04-22T07:44:26.854Z,454.00
2023-04-22T07:45:26.704Z,471.00
2023-04-22T07:46:26.716Z,429.00
2023-04-22T07:47:26.805Z,440.00
2023-04-22T07:48:27.419Z,465.00
2023-04-22T07:49:26.897Z,479.00
2023-04-22T07:50:26.835Z,454.00
2023-04-22T07:51:26.918Z,456.00
2023-04-22T07:52:26.892Z,457.00
2023-04-22T07:53:26.982Z,466.00
2023-04-22T07:54:26.977Z,453.00
2023-04-22T07:55:27.040Z,467.00
2023-04-22T07:56:27.182Z,455.00
2023-04-22T07:57:27.263Z,457.00
2023-04-22T07:58:27.119Z,477.00
2023-04-22T07:59:27.302Z,443.00
2023-04-22T08:00:27.238Z,435.00
2023-04-22T08:01:27.341Z,447.00
2023-04-22T08:02:27.423Z,456.00
2023-04-22T08:03:27.498Z,455.00
2023-04-22T08:04:27.606Z,422.00
2023-04-22T08:05:27.606Z,446.00
2023-04-22T08:06:27.482Z,439.00
2023-04-22T08:07:32.947Z,444.00
2023-04-22T08:08:28.434Z,479.00
2023-04-22T08:09:27.363Z,464.00
2023-04-22T08:10:27.450Z,456.00
2023-04-22T08:11:27.573Z,413.00
2023-04-22T08:12:27.901Z,431.00
2023-04-22T08:13:27.304Z,457.00
2023-04-22T08:14:27.422Z,450.00
2023-04-22T08:15:27.384Z,469.00
2023-04-22T08:16:27.534Z,457.00
2023-04-22T08:17:27.447Z,422.00
2023-04-22T08:18:27.340Z,457.00
2023-04-22T08:19:28.152Z,453.00
2023-04-22T08:20:27.528Z,461.00
2023-04-22T08:21:27.417Z,460.00
2023-04-22T08:22:27.481Z,450.00
2023-04-22T08:23:27.415Z,450.00
2023-04-22T08:24:27.862Z,451.00
2023-04-22T08:25:27.290Z,449.00
2023-04-22T08:26:27.253Z,449.00
2023-04-22T08:27:27.282Z,442.00
2023-04-22T08:28:27.408Z,455.00
2023-04-22T08:29:27.225Z,489.00
2023-04-22T08:30:27.247Z,445.00
2023-04-22T08:31:27.221Z,448.00
2023-04-22T08:32:27.278Z,459.00
2023-04-22T08:33:27.461Z,412.00
2023-04-22T08:34:27.275Z,457.00
2023-04-22T08:35:28.054Z,444.00
2023-04-22T08:36:27.221Z,450.00
2023-04-22T08:37:27.145Z,444.00
2023-04-22T08:38:27.352Z,448.00
2023-04-22T08:39:27.174Z,452.00
2023-04-22T08:40:27.341Z,446.00
2023-04-22T08:41:27.112Z,457.00
2023-04-22T08:42:27.201Z,450.00
2023-04-22T08:43:27.105Z,462.00
2023-04-22T08:44:27.175Z,414.00
2023-04-22T08:45:27.096Z,473.00
2023-04-22T08:46:27.142Z,448.00
2023-04-22T08:47:27.188Z,463.00
2023-04-22T08:48:27.092Z,439.00
2023-04-22T08:49:27.093Z,442.00
2023-04-22T08:50:27.177Z,401.00
2023-04-22T08:51:27.190Z,457.00
2023-04-22T08:52:27.156Z,477.00
2023-04-22T08:53:27.058Z,453.00
2023-04-22T08:54:27.042Z,384.00
2023-04-22T08:55:27.046Z,469.00
2023-04-22T08:56:27.046Z,405.00
2023-04-22T08:57:27.060Z,516.00
2023-04-22T08:58:27.100Z,437.00
2023-04-22T08:59:27.097Z,456.00
2023-04-22T09:00:27.210Z,419.00
2023-04-22T09:01:27.320Z,446.00
2023-04-22T09:02:27.980Z,432.00
2023-04-22T09:03:27.439Z,416.00
2023-04-22T09:04:27.412Z,445.00
2023-04-22T09:05:28.024Z,441.00
2023-04-22T09:06:27.403Z,448.00
2023-04-22T09:07:27.590Z,447.00
2023-04-22T09:08:27.515Z,431.00
2023-04-22T09:09:27.529Z,441.00
2023-04-22T09:10:27.528Z,481.00
2023-04-22T09:11:27.615Z,435.00
2023-04-22T09:12:27.593Z,456.00
2023-04-22T09:13:27.751Z,442.00
2023-04-22T09:14:27.712Z,457.00
2023-04-22T09:15:27.784Z,467.00
2023-04-22T09:16:28.445Z,387.00
2023-04-22T09:17:27.806Z,440.00
2023-04-22T09:18:27.884Z,443.00
2023-04-22T09:19:27.929Z,461.00
2023-04-22T09:20:27.891Z,477.00
2023-04-22T09:21:27.897Z,458.00
2023-04-22T09:22:27.889Z,447.00
2023-04-22T09:23:27.969Z,442.00
2023-04-22T09:24:28.916Z,452.00
2023-04-22T09:25:28.168Z,456.00
2023-04-22T09:26:28.058Z,450.00
2023-04-22T09:27:28.132Z,457.00
2023-04-22T09:28:28.167Z,460.00
2023-04-22T09:29:28.269Z,446.00
2023-04-22T09:30:28.328Z,447.00
2023-04-22T09:31:28.327Z,451.00
2023-04-22T09:32:28.485Z,453.00
2023-04-22T09:33:28.500Z,474.00
2023-04-22T09:34:28.491Z,427.00
2023-04-22T09:35:28.419Z,443.00
2023-04-22T09:36:28.454Z,463.00
2023-04-22T09:37:36.036Z,442.00
2023-04-22T09:38:29.588Z,433.00
2023-04-22T09:39:28.610Z,450.00
2023-04-22T09:40:28.652Z,448.00
2023-04-22T09:41:28.497Z,430.00
2023-04-22T09:42:28.558Z,442.00
2023-04-22T09:43:28.477Z,452.00
2023-04-22T09:44:28.475Z,448.00
2023-04-22T09:45:28.515Z,456.00
2023-04-22T09:46:28.719Z,454.00
2023-04-22T09:47:28.457Z,454.00
2023-04-22T09:48:28.442Z,449.00
2023-04-22T09:49:29.489Z,447.00
2023-04-22T09:50:28.429Z,449.00
2023-04-22T09:51:28.567Z,449.00
2023-04-22T09:52:29.365Z,447.00
2023-04-22T09:53:28.485Z,451.00
2023-04-22T09:54:28.517Z,436.00
2023-04-22T09:55:28.368Z,418.00
2023-04-22T09:56:28.453Z,442.00
2023-04-22T09:57:28.373Z,443.00
2023-04-22T09:58:28.427Z,501.00
2023-04-22T09:59:28.378Z,442.00
2023-04-22T10:00:28.483Z,442.00
2023-04-22T10:01:28.604Z,409.00
2023-04-22T10:02:28.714Z,430.00
2023-04-22T10:03:28.690Z,440.00
2023-04-22T10:04:28.839Z,441.00
2023-04-22T10:05:28.699Z,443.00
2023-04-22T10:06:28.807Z,443.00
2023-04-22T10:07:28.879Z,451.00
2023-04-22T10:08:28.810Z,444.00
2023-04-22T10:09:28.878Z,443.00
2023-04-22T10:10:28.955Z,444.00
2023-04-22T10:11:28.932Z,431.00
2023-04-22T10:12:35.341Z,424.00
2023-04-22T10:13:29.896Z,441.00
2023-04-22T10:14:28.940Z,386.00
2023-04-22T10:15:29.023Z,422.00
2023-04-22T10:16:29.015Z,458.00
2023-04-22T10:17:28.974Z,431.00
2023-04-22T10:18:28.903Z,449.00
2023-04-22T10:19:28.934Z,425.00
2023-04-22T10:20:28.848Z,446.00
2023-04-22T10:21:28.914Z,372.00
2023-04-22T10:22:29.017Z,439.00
2023-04-22T10:23:28.846Z,426.00
2023-04-22T10:24:28.908Z,434.00
2023-04-22T10:25:28.839Z,509.00
2023-04-22T10:26:28.838Z,460.00
2023-04-22T10:27:28.809Z,453.00
2023-04-22T10:28:28.822Z,449.00
2023-04-22T10:29:28.845Z,415.00
2023-04-22T10:30:28.780Z,404.00
2023-04-22T10:31:29.031Z,433.00
2023-04-22T10:32:28.845Z,440.00
2023-04-22T10:33:29.012Z,444.00
2023-04-22T10:34:28.812Z,450.00
2023-04-22T10:35:28.967Z,465.00
2023-04-22T10:36:28.931Z,445.00
2023-04-22T10:37:29.008Z,451.00
2023-04-22T10:38:28.973Z,436.00
2023-04-22T10:39:29.060Z,450.00
2023-04-22T10:40:29.009Z,437.00
2023-04-22T10:41:29.072Z,444.00
2023-04-22T10:42:29.098Z,452.00
2023-04-22T10:43:29.203Z,413.00
2023-04-22T10:44:30.004Z,420.00
2023-04-22T10:45:29.241Z,431.00
2023-04-22T10:46:29.256Z,390.00
2023-04-22T10:47:29.373Z,452.00
2023-04-22T10:48:29.262Z,452.00
2023-04-22T10:49:29.388Z,457.00
2023-04-22T10:50:29.394Z,458.00
2023-04-22T10:51:29.520Z,453.00
2023-04-22T10:52:29.481Z,455.00
2023-04-22T10:53:29.598Z,445.00
2023-04-22T10:54:31.852Z,453.00
2023-04-22T10:55:29.442Z,458.00
2023-04-22T10:56:29.516Z,469.00
2023-04-22T10:57:29.570Z,449.00
2023-04-22T10:58:29.504Z,396.00
2023-04-22T10:59:29.473Z,339.00
2023-04-22T11:00:33.163Z,405.00
2023-04-22T11:01:30.459Z,465.00
2023-04-22T11:02:29.530Z,433.00
2023-04-22T11:03:30.294Z,453.00
2023-04-22T11:04:29.411Z,458.00
2023-04-22T11:05:29.442Z,490.00
2023-04-22T11:06:29.431Z,424.00
2023-04-22T11:07:29.448Z,486.00
2023-04-22T11:08:29.439Z,426.00
2023-04-22T11:09:29.394Z,427.00
2023-04-22T11:10:29.420Z,436.00
2023-04-22T11:11:29.444Z,441.00
2023-04-22T11:12:29.380Z,449.00
2023-04-22T11:13:29.381Z,447.00
2023-04-22T11:14:29.454Z,424.00
2023-04-22T11:15:29.384Z,406.00
2023-04-22T11:16:29.385Z,443.00
2023-04-22T11:17:29.368Z,433.00
2023-04-22T11:18:29.407Z,446.00
2023-04-22T11:19:29.374Z,453.00
2023-04-22T11:20:29.409Z,447.00
2023-04-22T11:21:29.449Z,464.00
2023-04-22T11:22:29.460Z,398.00
2023-04-22T11:23:29.475Z,443.00
2023-04-22T11:24:29.579Z,438.00
2023-04-22T11:25:29.584Z,442.00
2023-04-22T11:26:29.637Z,441.00
2023-04-22T11:27:29.630Z,446.00
2023-04-22T11:28:29.683Z,441.00
2023-04-22T11:29:29.764Z,447.00
2023-04-22T11:30:29.792Z,444.00
2023-04-22T11:31:29.874Z,442.00
2023-04-22T11:32:29.979Z,444.00
2023-04-22T11:33:29.908Z,448.00
2023-04-22T11:34:29.910Z,425.00
2023-04-22T11:35:29.962Z,423.00
2023-04-22T11:36:29.951Z,431.00
2023-04-22T11:37:30.002Z,396.00
2023-04-22T11:38:30.065Z,425.00
2023-04-22T11:39:30.146Z,439.00
2023-04-22T11:40:31.764Z,454.00
2023-04-22T11:41:30.303Z,452.00
2023-04-22T11:42:30.342Z,433.00
2023-04-22T11:43:30.335Z,457.00
2023-04-22T11:44:30.495Z,440.00
2023-04-22T11:45:30.514Z,438.00
2023-04-22T11:46:30.657Z,440.00
2023-04-22T11:47:30.620Z,445.00
2023-04-22T11:48:30.565Z,444.00
2023-04-22T11:49:30.625Z,444.00
2023-04-22T11:50:30.701Z,448.00
2023-04-22T11:51:30.641Z,449.00
2023-04-22T11:52:30.647Z,447.00
2023-04-22T11:53:30.708Z,444.00
2023-04-22T11:54:30.755Z,448.00
2023-04-22T11:55:30.844Z,452.00
2023-04-22T11:56:30.884Z,450.00
2023-04-22T11:57:31.770Z,450.00
2023-04-22T11:58:30.923Z,436.00
2023-04-22T11:59:30.943Z,448.00
2023-04-22T12:00:31.005Z,459.00
2023-04-22T12:01:31.075Z,439.00
2023-04-22T12:02:31.222Z,445.00
2023-04-22T12:03:31.564Z,491.00
2023-04-22T12:04:31.160Z,477.00
2023-04-22T12:05:31.320Z,452.00
2023-04-22T12:06:31.217Z,455.00
2023-04-22T12:07:31.375Z,498.00
2023-04-22T12:08:31.331Z,397.00
2023-04-22T12:09:31.381Z,450.00
2023-04-22T12:10:31.452Z,438.00
2023-04-22T12:11:31.462Z,431.00
2023-04-22T12:12:31.510Z,439.00
2023-04-22T12:13:31.502Z,445.00
2023-04-22T12:14:31.528Z,505.00
2023-04-22T12:15:31.598Z,428.00
2023-04-22T12:16:31.631Z,428.00
2023-04-22T12:17:31.673Z,432.00
2023-04-22T12:18:31.703Z,453.00
2023-04-22T12:19:31.712Z,412.00
2023-04-22T12:20:31.778Z,415.00
2023-04-22T12:21:31.844Z,423.00
2023-04-22T12:22:31.878Z,427.00
2023-04-22T12:23:31.887Z,415.00
2023-04-22T12:24:31.912Z,446.00
2023-04-22T12:25:32.032Z,447.00
2023-04-22T12:26:32.054Z,438.00
2023-04-22T12:27:32.030Z,472.00
2023-04-22T12:28:32.039Z,433.00